Terminal Aerodrome Forecast
Issued by NWS Sioux Falls, SD

Home | Current Version | Previous Version | Text Only | Print | Product List | Glossary On
Versions: 1 2 3 4 5 6 7 8 9 10 11 12 13 14 15 16 17 18 19 20 21 22 23 24
000
FTUS43 KFSD 241700
TAFFSD
TAF
KFSD 241733Z 2418/2518 15013G18KT P6SM SCT025 SCT060 BKN150
     FM242000 16016G24KT P6SM SCT060 BKN200
     FM250100 16013G19KT P6SM SCT080 BKN200
     FM250900 15011KT P6SM BKN150
     FM251200 11006KT P6SM SCT015
     FM251700 35010KT P6SM SCT035=

USA.gov is the U.S. government's official web portal to all federal, state and local government web resources and services.